createdAt,value
2023-05-11T00:02:02.138Z,100672.19
2023-05-11T00:04:29.128Z,100677.47
2023-05-11T00:06:59.239Z,100687.25
2023-05-11T00:09:26.723Z,100677.47
2023-05-11T00:11:56.710Z,100683.19
2023-05-11T00:14:23.746Z,100678.09
2023-05-11T00:16:55.736Z,100686.56
2023-05-11T00:19:22.456Z,100684.34
2023-05-11T00:21:49.183Z,100691.91
2023-05-11T00:24:16.253Z,100684.44
2023-05-11T00:26:43.380Z,100690.03
2023-05-11T00:29:18.954Z,100683.25
2023-05-11T00:31:49.547Z,100694.41
2023-05-11T00:34:19.338Z,100694.75
2023-05-11T00:36:49.647Z,100691.53
2023-05-11T00:39:22.704Z,100695.75
2023-05-11T00:41:49.522Z,100696.44
2023-05-11T00:44:18.635Z,100702.69
2023-05-11T00:46:47.707Z,100702.88
2023-05-11T00:49:21.622Z,100698.63
2023-05-11T00:51:48.769Z,100698.47
2023-05-11T00:54:16.251Z,100696.44
2023-05-11T00:56:43.486Z,100698.44
2023-05-11T00:59:19.276Z,100704.53
2023-05-11T01:01:46.497Z,100698.75
2023-05-11T01:04:19.289Z,100700.63
2023-05-11T01:07:31.219Z,100704.34
2023-05-11T01:10:42.359Z,100708.03
2023-05-11T01:14:13.632Z,100707.03
2023-05-11T01:16:49.453Z,100711.75
2023-05-11T01:19:44.849Z,100705.50
2023-05-11T01:23:19.031Z,100707.34
2023-05-11T01:26:16.174Z,100707.69
2023-05-11T01:29:19.651Z,100707.69
2023-05-11T01:31:58.813Z,100707.00
2023-05-11T01:34:36.164Z,100712.75
2023-05-11T01:37:27.930Z,100713.72
2023-05-11T01:40:20.966Z,100722.16
2023-05-11T01:43:19.445Z,100716.75
2023-05-11T01:45:56.859Z,100718.09
2023-05-11T01:48:35.621Z,100716.38
2023-05-11T01:51:09.736Z,100719.09
2023-05-11T01:53:48.591Z,100718.78
2023-05-11T01:56:19.950Z,100716.56
2023-05-11T01:59:00.944Z,100714.69
2023-05-11T02:01:30.634Z,100720.09
2023-05-11T02:04:06.478Z,100724.66
2023-05-11T02:06:38.357Z,100729.06
2023-05-11T02:09:18.841Z,100727.53
2023-05-11T02:11:49.472Z,100723.84
2023-05-11T02:14:21.747Z,100728.22
2023-05-11T02:16:51.896Z,100727.53
2023-05-11T02:19:21.565Z,100727.84
2023-05-11T02:21:57.358Z,100735.78
2023-05-11T02:24:28.641Z,100731.25
2023-05-11T02:27:08.038Z,100733.78
2023-05-11T02:29:35.280Z,100733.06
2023-05-11T02:32:22.725Z,100742.22
2023-05-11T02:35:11.353Z,100742.22
2023-05-11T02:37:47.252Z,100733.75
2023-05-11T02:40:34.020Z,100741.84
2023-05-11T02:43:11.776Z,100742.16
2023-05-11T02:45:48.857Z,100737.91
2023-05-11T02:48:30.642Z,100743.03
2023-05-11T02:51:02.699Z,100744.16
2023-05-11T02:53:35.041Z,100754.97
2023-05-11T02:56:06.358Z,100753.13
2023-05-11T02:58:33.738Z,100751.13
2023-05-11T03:01:01.371Z,100758.34
2023-05-11T03:03:28.993Z,100747.72
2023-05-11T03:05:55.912Z,100750.94
2023-05-11T03:08:22.740Z,100760.75
2023-05-11T03:10:52.058Z,100760.75
2023-05-11T03:13:26.776Z,100756.34
2023-05-11T03:16:11.842Z,100763.47
2023-05-11T03:18:43.239Z,100758.06
2023-05-11T03:21:21.983Z,100760.59
2023-05-11T03:24:00.590Z,100757.72
2023-05-11T03:26:30.537Z,100768.91
2023-05-11T03:29:07.030Z,100763.69
2023-05-11T03:31:34.120Z,100759.63
2023-05-11T03:34:06.360Z,100765.56
2023-05-11T03:36:38.015Z,100767.94
2023-05-11T03:39:14.475Z,100762.38
2023-05-11T03:41:56.870Z,100763.63
2023-05-11T03:44:37.723Z,100756.66
2023-05-11T03:47:10.506Z,100754.63
2023-05-11T03:52:25.713Z,100765.34
2023-05-11T03:54:55.323Z,100759.47
2023-05-11T03:57:29.394Z,100766.75
2023-05-11T04:00:12.472Z,100769.94
2023-05-11T04:02:46.582Z,100769.59
2023-05-11T04:05:14.650Z,100763.22
2023-05-11T04:07:44.875Z,100762.88
2023-05-11T04:10:14.803Z,100773.06
2023-05-11T04:12:42.824Z,100779.47
2023-05-11T04:15:21.042Z,100772.03
2023-05-11T04:17:48.263Z,100776.47
2023-05-11T04:20:24.173Z,100779.88
2023-05-11T04:22:51.149Z,100781.94
2023-05-11T04:25:23.764Z,100782.13
2023-05-11T04:27:57.498Z,100787.72
2023-05-11T04:30:24.530Z,100785.00
2023-05-11T04:33:02.748Z,100783.66
2023-05-11T04:35:29.794Z,100781.16
2023-05-11T04:37:57.945Z,100788.78
2023-05-11T04:40:35.330Z,100780.47
2023-05-11T04:43:02.319Z,100787.34
2023-05-11T04:45:32.127Z,100792.78
2023-05-11T04:56:15.514Z,100801.09
2023-05-11T04:58:50.299Z,100794.50
2023-05-11T05:06:50.899Z,100801.63
2023-05-11T05:26:32.809Z,100810.22
2023-05-11T05:48:49.248Z,100828.00
2023-05-11T05:51:24.635Z,100834.09
2023-05-11T05:54:01.781Z,100837.78
2023-05-11T05:56:30.885Z,100836.47
2023-05-11T05:59:03.653Z,100838.13
2023-05-11T06:01:30.539Z,100840.31
2023-05-11T06:04:02.919Z,100836.44
2023-05-11T06:06:30.755Z,100849.63
2023-05-11T06:09:00.546Z,100844.72
2023-05-11T06:11:35.422Z,100850.81
2023-05-11T06:14:03.239Z,100851.66
2023-05-11T06:16:32.814Z,100848.94
2023-05-11T06:18:59.896Z,100853.56
2023-05-11T06:21:26.782Z,100855.59
2023-05-11T06:23:56.505Z,100850.53
2023-05-11T06:26:28.472Z,100852.56
2023-05-11T06:28:58.251Z,100844.59
2023-05-11T06:31:25.392Z,100856.47
2023-05-11T06:33:58.851Z,100849.69
2023-05-11T06:36:33.939Z,100845.28
2023-05-11T06:39:09.152Z,100852.94
2023-05-11T06:41:35.934Z,100853.75
2023-05-11T06:44:02.858Z,100845.31
2023-05-11T06:46:29.907Z,100859.75
2023-05-11T06:49:00.931Z,100862.78
2023-05-11T06:51:33.159Z,100856.19
2023-05-11T06:54:03.305Z,100860.59
2023-05-11T06:56:31.935Z,100863.63
2023-05-11T06:59:01.113Z,100870.75
2023-05-11T07:01:30.700Z,100869.41
2023-05-11T07:04:18.617Z,100869.56
2023-05-11T07:06:48.048Z,100869.25
2023-05-11T07:09:15.519Z,100871.28
2023-05-11T07:11:47.614Z,100877.38
2023-05-11T07:14:18.764Z,100879.59
2023-05-11T07:16:48.623Z,100881.28
2023-05-11T07:19:16.085Z,100876.00
2023-05-11T07:21:48.196Z,100884.81
2023-05-11T07:24:18.194Z,100879.72
2023-05-11T07:26:45.076Z,100888.69
2023-05-11T07:29:27.965Z,100884.63
2023-05-11T07:32:25.264Z,100887.16
2023-05-11T07:34:56.574Z,100896.97
2023-05-11T07:37:26.197Z,100892.06
2023-05-11T07:39:56.891Z,100901.34
2023-05-11T07:42:27.510Z,100907.59
2023-05-11T07:45:00.296Z,100898.28
2023-05-11T07:47:36.746Z,100901.16
2023-05-11T07:50:17.025Z,100903.19
2023-05-11T07:52:44.190Z,100903.19
2023-05-11T07:55:13.404Z,100907.06
2023-05-11T07:57:45.735Z,100912.34
2023-05-11T08:00:16.699Z,100913.81
2023-05-11T08:02:48.611Z,100910.28
2023-05-11T08:05:19.896Z,100920.56
2023-05-11T08:07:47.497Z,100917.22
2023-05-11T08:10:14.642Z,100924.00
2023-05-11T08:12:46.110Z,100920.16
2023-05-11T08:15:24.721Z,100916.09
2023-05-11T08:17:52.015Z,100926.25
2023-05-11T08:20:19.207Z,100922.53
2023-05-11T08:22:47.833Z,100921.88
2023-05-11T08:25:22.690Z,100926.78
2023-05-11T08:27:49.672Z,100931.22
2023-05-11T08:30:25.125Z,100931.84
2023-05-11T08:32:59.262Z,100930.19
2023-05-11T08:35:33.726Z,100931.38
2023-05-11T08:38:00.566Z,100937.28
2023-05-11T08:40:31.445Z,100945.75
2023-05-11T08:43:11.644Z,100932.34
2023-05-11T08:45:48.024Z,100936.94
2023-05-11T08:48:31.901Z,100943.50
2023-05-11T08:51:00.031Z,100948.63
2023-05-11T08:53:33.255Z,100932.84
2023-05-11T08:56:02.086Z,100933.19
2023-05-11T08:58:38.153Z,100930.00
2023-05-11T09:01:12.508Z,100932.34
2023-05-11T09:03:43.212Z,100921.88
2023-05-11T09:06:28.865Z,100930.50
2023-05-11T09:08:59.516Z,100943.22
2023-05-11T09:11:30.895Z,100938.66
2023-05-11T09:14:00.596Z,100940.34
2023-05-11T09:16:36.858Z,100932.19
2023-05-11T09:19:05.700Z,100934.94
2023-05-11T09:21:33.286Z,100944.09
2023-05-11T09:24:00.875Z,100940.56
2023-05-11T09:26:34.180Z,100940.94
2023-05-11T09:29:06.973Z,100943.97
2023-05-11T09:31:56.535Z,100949.72
2023-05-11T09:34:24.474Z,100941.03
2023-05-11T09:37:00.153Z,100944.94
2023-05-11T09:39:42.254Z,100951.19
2023-05-11T09:42:34.042Z,100953.28
2023-05-11T09:45:06.516Z,100955.50
2023-05-11T09:47:42.362Z,100956.50
2023-05-11T09:50:26.456Z,100953.13
2023-05-11T09:53:06.776Z,100963.81
2023-05-11T09:55:36.628Z,100962.44
2023-05-11T09:58:13.929Z,100956.34
2023-05-11T10:00:57.707Z,100960.91
2023-05-11T10:03:29.695Z,100960.53
2023-05-11T10:06:03.204Z,100952.88
2023-05-11T10:08:34.632Z,100962.69
2023-05-11T10:11:08.761Z,100951.13
2023-05-11T10:13:39.995Z,100966.56
2023-05-11T10:16:13.223Z,100958.69
2023-05-11T10:18:43.433Z,100953.81
2023-05-11T10:21:22.289Z,100946.84
2023-05-11T10:23:58.393Z,100946.38
2023-05-11T10:26:46.134Z,100949.78
2023-05-11T10:29:14.465Z,100947.06
2023-05-11T11:07:24.873Z,100946.81
2023-05-11T11:09:57.959Z,100951.94
2023-05-11T11:12:30.186Z,100957.19
2023-05-11T11:15:16.376Z,100952.13
2023-05-11T11:18:36.160Z,100950.38
2023-05-11T11:21:09.006Z,100950.63
2023-05-11T11:23:50.610Z,100957.16
2023-05-11T11:26:55.495Z,100948.41
2023-05-11T11:29:22.942Z,100947.88
2023-05-11T11:31:49.983Z,100952.31
2023-05-11T11:34:31.117Z,100956.91
2023-05-11T11:37:09.869Z,100947.47
2023-05-11T11:39:51.997Z,100951.88
2023-05-11T11:42:34.936Z,100952.31
2023-05-11T11:45:34.746Z,100950.47
2023-05-11T11:48:28.314Z,100941.25
2023-05-11T11:51:14.470Z,100944.59
2023-05-11T11:53:50.591Z,100955.09
2023-05-11T11:56:23.981Z,100945.66
2023-05-11T11:58:50.761Z,100946.44
2023-05-11T12:01:40.083Z,100954.34
2023-05-11T12:04:39.281Z,100951.00
2023-05-11T12:07:22.047Z,100953.88
2023-05-11T12:09:51.861Z,100946.84
2023-05-11T12:12:28.840Z,100953.88
2023-05-11T12:15:40.957Z,100956.56
2023-05-11T12:18:22.379Z,100953.16
2023-05-11T12:20:52.647Z,100948.69
2023-05-11T12:23:19.674Z,100956.19
2023-05-11T12:26:26.904Z,100948.69
2023-05-11T12:29:18.498Z,100949.47
2023-05-11T12:31:47.291Z,100954.56
2023-05-11T12:34:24.562Z,100965.84
2023-05-11T12:36:58.953Z,100954.97
2023-05-11T12:39:33.119Z,100957.97
2023-05-11T12:42:09.300Z,100961.13
2023-05-11T12:44:40.731Z,100955.13
2023-05-11T12:47:10.836Z,100956.75
2023-05-11T12:49:37.908Z,100950.34
2023-05-11T12:52:10.303Z,100944.06
2023-05-11T12:54:51.707Z,100947.88
2023-05-11T12:57:33.781Z,100956.22
2023-05-11T13:00:19.977Z,100947.19
2023-05-11T13:03:00.376Z,100950.91
2023-05-11T13:05:29.453Z,100949.97
2023-05-11T13:08:11.425Z,100949.28
2023-05-11T13:10:38.279Z,100953.53
2023-05-11T13:13:07.746Z,100950.19
2023-05-11T13:15:54.150Z,100957.25
2023-05-11T13:19:27.798Z,100944.78
2023-05-11T13:22:06.415Z,100952.09
2023-05-11T13:24:39.564Z,100945.97
2023-05-11T13:27:18.138Z,100943.59
2023-05-11T13:29:47.392Z,100947.34
2023-05-11T13:32:16.860Z,100945.81
2023-05-11T13:34:43.937Z,100941.25
2023-05-11T13:37:13.733Z,100951.22
2023-05-11T13:39:40.677Z,100942.91
2023-05-11T13:42:10.651Z,100942.88
2023-05-11T13:44:40.879Z,100945.38
2023-05-11T13:47:16.959Z,100938.47
2023-05-11T13:50:17.564Z,100930.63
2023-05-11T13:52:44.510Z,100946.88
2023-05-11T13:55:14.294Z,100941.56
2023-05-11T13:57:41.136Z,100935.22
2023-05-11T14:00:17.965Z,100929.91
2023-05-11T14:06:01.557Z,100936.41
2023-05-11T14:08:31.402Z,100931.13
2023-05-11T14:10:58.446Z,100934.19
2023-05-11T14:13:26.004Z,100937.97
2023-05-11T14:15:53.997Z,100939.63
2023-05-11T14:18:40.353Z,100936.28
2023-05-11T14:21:09.835Z,100938.41
2023-05-11T14:23:44.971Z,100941.75
2023-05-11T14:26:17.345Z,100945.34
2023-05-11T14:28:44.241Z,100934.44
2023-05-11T14:31:30.451Z,100928.13
2023-05-11T14:34:14.208Z,100926.09
2023-05-11T14:36:41.497Z,100937.13
2023-05-11T14:39:08.302Z,100939.44
2023-05-11T14:41:48.941Z,100929.41
2023-05-11T14:44:19.159Z,100926.94
2023-05-11T14:46:46.239Z,100926.75
2023-05-11T14:49:18.738Z,100925.94
2023-05-11T14:51:51.270Z,100924.81
2023-05-11T14:54:24.892Z,100930.47
2023-05-11T14:56:57.596Z,100928.41
2023-05-11T14:59:30.677Z,100921.91
2023-05-11T15:02:00.872Z,100920.72
2023-05-11T15:04:28.159Z,100923.38
2023-05-11T15:06:58.354Z,100918.53
2023-05-11T15:10:13.567Z,100917.94
2023-05-11T15:12:52.905Z,100916.28
2023-05-11T15:15:33.520Z,100925.16
2023-05-11T15:18:06.493Z,100923.44
2023-05-11T15:20:38.607Z,100921.53
2023-05-11T15:23:17.196Z,100925.94
2023-05-11T15:25:49.252Z,100922.78
2023-05-11T15:28:28.849Z,100940.72
2023-05-11T15:31:24.326Z,100926.78
2023-05-11T15:33:51.338Z,100934.88
2023-05-11T15:36:18.395Z,100934.84
2023-05-11T15:38:51.611Z,100940.19
2023-05-11T15:41:18.457Z,100936.09
2023-05-11T15:43:45.163Z,100938.50
2023-05-11T15:46:12.401Z,100935.25
2023-05-11T15:48:42.421Z,100939.69
2023-05-11T15:51:09.646Z,100940.56
2023-05-11T15:53:48.770Z,100934.09
2023-05-11T15:56:32.832Z,100939.47
2023-05-11T15:59:01.990Z,100944.00
2023-05-11T16:01:29.132Z,100937.94
2023-05-11T16:03:59.748Z,100931.44
2023-05-11T16:09:27.187Z,100927.69
2023-05-11T16:11:59.449Z,100934.06
2023-05-11T16:14:26.903Z,100935.53
2023-05-11T16:16:57.195Z,100933.47
2023-05-11T16:19:33.283Z,100932.66
2023-05-11T16:22:00.152Z,100923.66
2023-05-11T16:24:31.642Z,100924.97
2023-05-11T16:27:07.682Z,100925.41
2023-05-11T16:29:34.798Z,100926.84
2023-05-11T16:32:01.912Z,100928.75
2023-05-11T16:34:28.991Z,100919.88
2023-05-11T16:37:01.577Z,100927.88
2023-05-11T16:39:28.504Z,100916.06
2023-05-11T16:42:07.123Z,100923.06
2023-05-11T16:44:42.756Z,100917.78
2023-05-11T16:47:11.531Z,100918.63
2023-05-11T16:49:41.450Z,100918.59
2023-05-11T16:52:08.225Z,100922.94
2023-05-11T16:54:35.120Z,100918.50
2023-05-11T16:57:07.971Z,100929.44
2023-05-11T16:59:42.475Z,100923.66
2023-05-11T17:02:10.520Z,100924.81
2023-05-11T17:04:40.925Z,100926.25
2023-05-11T17:07:11.097Z,100921.81
2023-05-11T17:09:40.446Z,100914.25
2023-05-11T17:12:17.294Z,100917.38
2023-05-11T17:14:44.389Z,100918.59
2023-05-11T17:17:11.615Z,100914.34
2023-05-11T17:19:41.125Z,100909.06
2023-05-11T17:22:13.475Z,100921.69
2023-05-11T17:24:48.855Z,100921.69
2023-05-11T17:27:16.311Z,100921.22
2023-05-11T17:29:59.180Z,100914.91
2023-05-11T17:32:26.924Z,100913.41
2023-05-11T17:34:57.520Z,100913.31
2023-05-11T17:37:31.746Z,100924.06
2023-05-11T17:40:18.197Z,100924.25
2023-05-11T17:43:08.129Z,100928.72
2023-05-11T17:45:41.058Z,100922.78
2023-05-11T17:51:18.510Z,100923.22
2023-05-11T17:54:32.057Z,100927.34
2023-05-11T17:57:11.575Z,100922.78
2023-05-11T17:59:50.731Z,100934.06
2023-05-11T18:02:18.980Z,100932.03
2023-05-11T18:04:49.314Z,100930.72
2023-05-11T18:07:22.525Z,100919.91
2023-05-11T18:09:49.399Z,100927.06
2023-05-11T18:12:19.625Z,100927.31
2023-05-11T18:15:18.808Z,100920.06
2023-05-11T18:17:49.448Z,100924.03
2023-05-11T18:20:18.201Z,100931.88
2023-05-11T18:22:47.848Z,100931.06
2023-05-11T18:25:23.416Z,100925.81
2023-05-11T18:27:51.478Z,100931.44
2023-05-11T18:30:21.387Z,100933.63
2023-05-11T18:32:48.480Z,100939.06
2023-05-11T18:35:19.054Z,100941.09
2023-05-11T18:37:46.832Z,100935.88
2023-05-11T18:40:20.281Z,100951.50
2023-05-11T18:42:47.400Z,100951.50
2023-05-11T18:45:19.669Z,100946.97
2023-05-11T18:47:47.680Z,100962.41
2023-05-11T18:50:17.211Z,100953.63
2023-05-11T18:52:47.618Z,100959.91
2023-05-11T18:55:18.454Z,100966.72
2023-05-11T18:57:48.409Z,100965.19
2023-05-11T19:00:16.313Z,100971.63
2023-05-11T19:02:54.924Z,100974.47
2023-05-11T19:05:33.234Z,100976.53
2023-05-11T19:08:00.456Z,100977.53
2023-05-11T19:10:29.075Z,100982.03
2023-05-11T19:12:56.057Z,100985.09
2023-05-11T19:15:22.862Z,100973.53
2023-05-11T19:17:49.583Z,100984.88
2023-05-11T19:20:17.178Z,100987.75
2023-05-11T19:22:47.170Z,100978.88
2023-05-11T19:25:18.636Z,100987.84
2023-05-11T19:27:48.584Z,100980.84
2023-05-11T19:30:19.292Z,100993.84
2023-05-11T19:32:57.195Z,101002.38
2023-05-11T19:35:24.862Z,101001.28
2023-05-11T19:37:51.540Z,101009.50
2023-05-11T19:43:08.381Z,101019.34
2023-05-11T21:17:16.697Z,101069.66
2023-05-11T21:31:10.454Z,101072.53
2023-05-11T21:33:40.037Z,101063.34
2023-05-11T21:36:09.635Z,101069.47
2023-05-11T21:38:36.593Z,101074.91
2023-05-11T21:41:06.474Z,101073.38
2023-05-11T21:43:33.563Z,101083.03
2023-05-11T21:46:03.072Z,101079.13
2023-05-11T21:48:32.367Z,101072.88
2023-05-11T21:51:01.756Z,101080.16
2023-05-11T21:53:30.625Z,101073.88
2023-05-11T21:56:20.660Z,101082.19
2023-05-11T21:58:51.272Z,101090.00
2023-05-11T22:01:23.958Z,101087.44
2023-05-11T22:03:55.713Z,101086.78
2023-05-11T22:06:22.876Z,101091.53
2023-05-11T22:09:00.863Z,101096.63
2023-05-11T22:11:33.783Z,101097.63
2023-05-11T22:14:03.136Z,101097.63
2023-05-11T22:16:37.729Z,101094.75
2023-05-11T22:19:11.181Z,101102.06
2023-05-11T22:21:39.872Z,101099.66
2023-05-11T22:24:09.040Z,101099.00
2023-05-11T22:26:38.746Z,101108.69
2023-05-11T22:29:15.514Z,101101.22
2023-05-11T22:31:46.176Z,101113.25
2023-05-11T22:34:13.440Z,101107.13
2023-05-11T22:37:10.248Z,101119.72
2023-05-11T22:39:37.154Z,101111.91
2023-05-11T22:42:09.469Z,101115.13
2023-05-11T22:44:36.762Z,101116.13
2023-05-11T22:47:04.961Z,101120.22
2023-05-11T22:49:32.057Z,101130.72
2023-05-11T22:51:59.637Z,101122.75
2023-05-11T22:54:29.395Z,101126.47
2023-05-11T22:57:03.543Z,101125.66
2023-05-11T22:59:34.671Z,101128.03
2023-05-11T23:02:13.940Z,101132.09
2023-05-11T23:04:44.505Z,101131.22
2023-05-11T23:07:12.830Z,101123.44
2023-05-11T23:09:42.338Z,101125.97
2023-05-11T23:12:11.649Z,101131.22
2023-05-11T23:14:41.605Z,101142.59
2023-05-11T23:17:13.177Z,101128.34
2023-05-11T23:19:54.912Z,101128.00
2023-05-11T23:22:28.037Z,101125.28
2023-05-11T23:25:01.403Z,101126.09
2023-05-11T23:27:28.620Z,101120.69
2023-05-11T23:29:58.095Z,101124.06
2023-05-11T23:32:25.074Z,101126.06
2023-05-11T23:34:54.312Z,101121.47
2023-05-11T23:37:22.315Z,101116.19
2023-05-11T23:39:55.218Z,101130.94
2023-05-11T23:42:22.551Z,101123.97
2023-05-11T23:44:54.932Z,101127.34
2023-05-11T23:47:24.773Z,101135.81
2023-05-11T23:50:14.015Z,101130.19
2023-05-11T23:52:46.464Z,101135.09
2023-05-11T23:55:19.297Z,101133.56
2023-05-11T23:57:46.612Z,101141.53
